createdAt,value
2018-11-03T00:01:08.905Z,6.57
2018-11-03T00:03:44.570Z,6.10
2018-11-03T00:06:16.306Z,6.23
2018-11-03T00:08:48.882Z,7.00
2018-11-03T00:11:24.110Z,7.00
2018-11-03T00:13:55.330Z,6.67
2018-11-03T00:16:27.638Z,6.23
2018-11-03T00:18:58.960Z,6.30
2018-11-03T00:21:30.538Z,5.80
2018-11-03T00:24:03.149Z,6.30
2018-11-03T00:26:35.401Z,6.50
2018-11-03T00:29:11.014Z,5.73
2018-11-03T00:31:44.471Z,5.73
2018-11-03T00:34:16.452Z,7.43
2018-11-03T00:36:51.440Z,6.90
2018-11-03T00:39:24.222Z,6.43
2018-11-03T00:41:55.512Z,5.90
2018-11-03T00:44:27.462Z,6.87
2018-11-03T00:47:00.621Z,7.50
2018-11-03T00:49:33.980Z,6.80
2018-11-03T00:52:06.272Z,6.20
2018-11-03T00:54:38.139Z,6.20
2018-11-03T00:57:11.122Z,6.60
2018-11-03T00:59:42.996Z,7.87
2018-11-03T01:02:14.143Z,7.43
2018-11-03T01:04:47.205Z,6.47
2018-11-03T01:07:18.783Z,8.00
2018-11-03T01:09:51.348Z,6.50
2018-11-03T01:12:22.593Z,6.87
2018-11-03T01:14:54.169Z,6.73
2018-11-03T01:17:25.928Z,7.20
2018-11-03T01:19:57.890Z,7.90
2018-11-03T01:22:29.692Z,7.27
2018-11-03T01:25:01.184Z,7.00
2018-11-03T01:27:34.015Z,7.20
2018-11-03T01:30:06.272Z,7.87
2018-11-03T01:32:38.091Z,7.70
2018-11-03T01:35:10.534Z,6.93
2018-11-03T01:37:42.448Z,6.93
2018-11-03T01:40:15.222Z,7.07
2018-11-03T01:42:46.960Z,6.40
2018-11-03T01:45:19.305Z,6.20
2018-11-03T01:47:50.726Z,6.37
2018-11-03T01:50:23.009Z,7.33
2018-11-03T01:52:55.399Z,7.83
2018-11-03T01:55:27.209Z,6.50
2018-11-03T01:57:59.266Z,7.30
2018-11-03T02:00:31.843Z,7.13
2018-11-03T02:03:03.704Z,7.20
2018-11-03T02:05:36.463Z,7.77
2018-11-03T02:08:09.583Z,8.00
2018-11-03T02:10:42.178Z,7.43
2018-11-03T02:13:13.776Z,6.83
2018-11-03T02:15:46.412Z,6.70
2018-11-03T02:18:18.338Z,6.63
2018-11-03T02:20:49.866Z,7.80
2018-11-03T02:23:21.640Z,7.87
2018-11-03T02:25:53.247Z,7.03
2018-11-03T02:28:25.079Z,6.77
2018-11-03T02:30:57.599Z,7.87
2018-11-03T02:33:29.190Z,7.87
2018-11-03T02:36:00.814Z,7.67
2018-11-03T02:38:32.831Z,7.50
2018-11-03T02:41:05.041Z,7.87
2018-11-03T02:43:36.786Z,7.70
2018-11-03T02:46:08.888Z,7.73
2018-11-03T02:48:40.955Z,7.03
2018-11-03T02:51:13.260Z,6.57
2018-11-03T02:53:45.092Z,7.47
2018-11-03T02:56:16.850Z,7.13
2018-11-03T02:58:48.332Z,8.53
2018-11-03T03:01:20.002Z,8.10
2018-11-03T03:03:51.621Z,7.80
2018-11-03T03:06:24.000Z,8.10
2018-11-03T03:08:55.845Z,7.40
2018-11-03T03:11:27.318Z,6.97
2018-11-03T03:13:58.818Z,7.90
2018-11-03T03:16:30.588Z,7.00
2018-11-03T03:19:02.065Z,8.03
2018-11-03T03:21:33.529Z,8.20
2018-11-03T03:24:05.347Z,7.80
2018-11-03T03:26:36.835Z,8.93
2018-11-03T03:29:08.964Z,7.80
2018-11-03T03:31:40.460Z,8.20
2018-11-03T03:34:12.144Z,8.73
2018-11-03T03:36:44.089Z,8.43
2018-11-03T03:39:15.312Z,8.33
2018-11-03T03:41:47.187Z,8.30
2018-11-03T03:44:18.645Z,7.70
2018-11-03T03:46:50.144Z,7.60
2018-11-03T03:49:21.944Z,8.13
2018-11-03T03:51:53.661Z,8.50
2018-11-03T03:54:25.347Z,7.80
2018-11-03T03:56:56.456Z,8.30
2018-11-03T03:59:28.017Z,8.77
2018-11-03T04:01:59.986Z,10.87
2018-11-03T04:04:31.423Z,7.70
2018-11-03T04:07:02.908Z,8.27
2018-11-03T04:09:34.194Z,7.87
2018-11-03T04:12:05.748Z,7.90
2018-11-03T04:14:37.175Z,8.80
2018-11-03T04:17:09.033Z,8.80
2018-11-03T04:19:40.408Z,8.30
2018-11-03T04:22:11.864Z,8.67
2018-11-03T04:24:43.259Z,8.47
2018-11-03T04:27:14.725Z,8.87
2018-11-03T04:29:46.740Z,8.37
2018-11-03T04:32:18.057Z,8.20
2018-11-03T04:34:49.795Z,7.70
2018-11-03T04:37:21.506Z,8.90
2018-11-03T04:39:54.172Z,8.90
2018-11-03T04:42:26.362Z,9.37
2018-11-03T04:44:57.920Z,9.20
2018-11-03T04:47:29.841Z,10.80
2018-11-03T04:50:02.477Z,8.30
2018-11-03T04:52:34.665Z,10.97
2018-11-03T04:58:07.666Z,9.20
2018-11-03T05:00:39.462Z,8.60
2018-11-03T05:03:10.761Z,9.40
2018-11-03T05:05:42.239Z,8.40
2018-11-03T05:08:14.238Z,9.73
2018-11-03T05:10:46.219Z,8.63
2018-11-03T05:13:19.592Z,9.40
2018-11-03T05:15:51.240Z,9.63
2018-11-03T05:18:23.047Z,9.57
2018-11-03T05:20:55.159Z,9.73
2018-11-03T05:23:26.690Z,8.50
2018-11-03T05:25:58.228Z,8.30
2018-11-03T05:28:29.379Z,8.97
2018-11-03T05:31:00.793Z,9.10
2018-11-03T05:33:33.481Z,9.63
2018-11-03T05:36:05.163Z,8.10
2018-11-03T05:38:37.413Z,9.30
2018-11-03T05:41:09.170Z,9.47
2018-11-03T05:43:40.987Z,9.70
2018-11-03T05:46:12.771Z,9.10
2018-11-03T05:48:44.500Z,10.10
2018-11-03T05:51:16.344Z,9.70
2018-11-03T05:53:47.971Z,9.27
2018-11-03T05:56:19.748Z,8.90
2018-11-03T05:58:52.635Z,7.67
2018-11-03T06:01:23.941Z,8.30
2018-11-03T06:03:56.289Z,8.60
2018-11-03T06:06:28.118Z,7.20
2018-11-03T06:08:59.578Z,7.70
2018-11-03T06:11:31.378Z,8.03
2018-11-03T06:14:03.312Z,7.80
2018-11-03T06:16:34.386Z,7.47
2018-11-03T06:19:06.058Z,7.70
2018-11-03T06:21:37.911Z,7.77
2018-11-03T06:24:10.132Z,7.70
2018-11-03T06:26:43.198Z,8.03
2018-11-03T06:29:14.915Z,7.30
2018-11-03T06:31:46.380Z,7.20
2018-11-03T06:34:18.237Z,8.00
2018-11-03T06:36:49.700Z,7.13
2018-11-03T06:39:21.572Z,7.67
2018-11-03T06:41:53.646Z,8.43
2018-11-03T06:44:25.713Z,8.70
2018-11-03T06:46:56.840Z,7.80
2018-11-03T06:49:31.422Z,8.03
2018-11-03T06:52:03.504Z,8.70
2018-11-03T06:54:34.913Z,8.00
2018-11-03T06:57:07.525Z,10.00
2018-11-03T06:59:39.560Z,10.00
2018-11-03T07:02:11.675Z,9.70
2018-11-03T07:04:43.293Z,9.07
2018-11-03T07:07:14.822Z,10.30
2018-11-03T07:09:46.476Z,9.97
2018-11-03T07:12:18.073Z,8.87
2018-11-03T07:14:50.631Z,9.23
2018-11-03T07:17:22.711Z,9.50
2018-11-03T07:19:54.819Z,9.47
2018-11-03T07:22:26.994Z,9.77
2018-11-03T07:24:58.495Z,9.73
2018-11-03T07:27:31.040Z,9.23
2018-11-03T07:30:02.599Z,8.50
2018-11-03T07:32:34.315Z,8.10
2018-11-03T07:35:07.609Z,9.00
2018-11-03T07:37:41.824Z,9.53
2018-11-03T07:40:13.250Z,9.87
2018-11-03T07:42:44.397Z,9.50
2018-11-03T07:45:15.526Z,10.77
2018-11-03T07:47:47.906Z,10.37
2018-11-03T07:50:19.079Z,9.87
2018-11-03T07:52:50.946Z,10.40
2018-11-03T07:55:23.242Z,10.63
2018-11-03T07:57:54.545Z,11.10
2018-11-03T08:00:25.654Z,24.77
2018-11-03T08:02:57.144Z,14.50
2018-11-03T08:05:29.637Z,20.97
2018-11-03T08:08:01.281Z,13.80
2018-11-03T08:10:32.835Z,12.37
2018-11-03T08:13:03.953Z,11.30
2018-11-03T08:15:35.333Z,11.80
2018-11-03T08:18:08.987Z,12.43
2018-11-03T08:20:40.947Z,11.30
2018-11-03T08:23:12.963Z,11.30
2018-11-03T08:25:44.515Z,12.87
2018-11-03T08:28:16.967Z,13.07
2018-11-03T08:30:48.375Z,13.17
2018-11-03T08:33:19.758Z,13.93
2018-11-03T08:35:51.196Z,14.47
2018-11-03T08:38:22.970Z,14.73
2018-11-03T08:40:54.067Z,15.60
2018-11-03T08:43:26.293Z,14.00
2018-11-03T08:45:57.909Z,13.80
2018-11-03T08:48:29.260Z,13.90
2018-11-03T08:51:00.662Z,15.43
2018-11-03T08:53:32.264Z,13.97
2018-11-03T08:56:04.148Z,13.40
2018-11-03T08:58:35.344Z,14.67
2018-11-03T09:01:07.010Z,14.03
2018-11-03T09:03:38.956Z,13.77
2018-11-03T09:06:10.590Z,15.30
2018-11-03T09:08:42.197Z,14.47
2018-11-03T09:11:13.520Z,13.93
2018-11-03T09:13:44.798Z,12.67
2018-11-03T09:16:16.885Z,14.30
2018-11-03T09:18:48.363Z,12.90
2018-11-03T09:21:19.649Z,14.03
2018-11-03T09:23:51.547Z,12.97
2018-11-03T09:26:24.529Z,13.67
2018-11-03T09:28:56.281Z,14.13
2018-11-03T09:31:28.713Z,13.17
2018-11-03T09:34:00.520Z,14.03
2018-11-03T09:36:34.207Z,13.93
2018-11-03T09:39:06.446Z,14.00
2018-11-03T09:41:38.036Z,12.10
2018-11-03T09:44:10.169Z,14.17
2018-11-03T09:46:45.373Z,14.53
2018-11-03T09:49:18.695Z,14.63
2018-11-03T09:51:50.286Z,15.10
2018-11-03T09:54:21.320Z,13.97
2018-11-03T09:56:53.672Z,16.47
2018-11-03T09:59:25.160Z,13.77
2018-11-03T10:01:57.267Z,13.60
2018-11-03T10:04:28.264Z,12.87
2018-11-03T10:06:59.982Z,12.67
2018-11-03T10:09:33.979Z,13.57
2018-11-03T10:12:05.457Z,12.97
2018-11-03T10:14:36.796Z,14.87
2018-11-03T10:17:08.684Z,13.63
2018-11-03T10:19:40.684Z,13.57
2018-11-03T10:22:11.860Z,14.27
2018-11-03T10:24:45.056Z,13.87
2018-11-03T10:27:17.759Z,13.00
2018-11-03T10:29:49.610Z,12.73
2018-11-03T10:32:21.649Z,13.33
2018-11-03T10:34:55.878Z,13.20
2018-11-03T10:37:29.036Z,13.83
2018-11-03T10:40:00.136Z,12.27
2018-11-03T10:42:31.663Z,11.97
2018-11-03T10:45:03.600Z,15.90
2018-11-03T10:47:34.682Z,12.63
2018-11-03T10:50:07.021Z,12.70
2018-11-03T10:52:38.172Z,12.33
2018-11-03T10:55:11.922Z,12.63
2018-11-03T10:57:43.769Z,12.33
2018-11-03T11:00:24.153Z,12.67
2018-11-03T11:03:01.498Z,13.50
2018-11-03T11:05:37.541Z,12.30
2018-11-03T11:08:14.796Z,13.63
2018-11-03T11:10:50.556Z,13.47
2018-11-03T11:13:26.776Z,13.83
2018-11-03T11:15:59.220Z,16.10
2018-11-03T11:18:32.917Z,13.40
2018-11-03T11:21:04.146Z,13.80
2018-11-03T11:23:37.015Z,13.83
2018-11-03T11:26:09.355Z,14.23
2018-11-03T11:28:40.840Z,14.03
2018-11-03T11:31:12.145Z,12.83
2018-11-03T11:33:44.219Z,13.90
2018-11-03T11:36:16.382Z,12.37
2018-11-03T11:38:48.328Z,12.00
2018-11-03T11:41:19.518Z,12.33
2018-11-03T11:43:50.963Z,12.80
2018-11-03T11:46:22.121Z,12.47
2018-11-03T11:48:53.212Z,12.90
2018-11-03T11:51:25.403Z,12.20
2018-11-03T11:53:56.654Z,12.17
2018-11-03T11:56:28.281Z,12.03
2018-11-03T11:58:59.532Z,11.87
2018-11-03T12:01:30.598Z,11.23
2018-11-03T12:04:02.529Z,9.60
2018-11-03T12:06:33.742Z,10.03
2018-11-03T12:09:05.534Z,9.87
2018-11-03T12:11:37.646Z,11.10
2018-11-03T12:14:09.086Z,13.63
2018-11-03T12:16:40.605Z,10.83
2018-11-03T12:19:12.461Z,9.57
2018-11-03T12:21:43.490Z,9.33
2018-11-03T12:24:14.960Z,11.10
2018-11-03T12:26:46.196Z,11.10
2018-11-03T12:29:17.939Z,12.10
2018-11-03T12:31:49.986Z,9.87
2018-11-03T12:34:21.079Z,9.83
2018-11-03T12:36:52.534Z,9.47
2018-11-03T12:39:24.005Z,10.93
2018-11-03T12:41:55.792Z,9.87
2018-11-03T12:44:27.122Z,10.40
2018-11-03T12:46:58.281Z,10.03
2018-11-03T12:49:29.906Z,9.30
2018-11-03T12:52:01.285Z,9.60
2018-11-03T12:54:32.464Z,9.53
2018-11-03T12:57:03.659Z,10.63
2018-11-03T12:59:34.810Z,10.60
2018-11-03T13:04:48.811Z,8.70
2018-11-03T13:07:20.477Z,9.53
2018-11-03T13:09:52.657Z,9.07
2018-11-03T13:12:23.919Z,9.20
2018-11-03T13:15:08.928Z,7.93
2018-11-03T13:17:40.798Z,10.17
2018-11-03T13:20:16.756Z,10.47
2018-11-03T13:22:49.092Z,8.50
2018-11-03T13:25:20.976Z,9.60
2018-11-03T13:27:52.602Z,9.50
2018-11-03T13:30:24.050Z,9.70
2018-11-03T13:32:57.403Z,11.27
2018-11-03T13:35:29.103Z,10.20
2018-11-03T13:38:00.606Z,9.13
2018-11-03T13:40:33.467Z,10.07
2018-11-03T13:43:06.328Z,9.80
2018-11-03T13:45:38.395Z,12.53
2018-11-03T13:48:10.388Z,9.90
2018-11-03T13:50:47.506Z,9.83
2018-11-03T13:53:21.042Z,9.90
2018-11-03T13:55:53.447Z,12.57
2018-11-03T13:58:24.855Z,11.23
2018-11-03T14:00:56.494Z,9.03
2018-11-03T14:03:27.620Z,8.97
2018-11-03T14:05:59.664Z,8.07
2018-11-03T14:08:31.784Z,8.40
2018-11-03T14:11:03.211Z,9.80
2018-11-03T14:13:34.825Z,9.80
2018-11-03T14:16:08.170Z,10.73
2018-11-03T14:18:40.629Z,9.77
2018-11-03T14:21:12.151Z,10.00
2018-11-03T14:23:43.977Z,12.53
2018-11-03T14:26:15.111Z,10.00
2018-11-03T14:28:46.832Z,9.70
2018-11-03T14:31:17.880Z,9.30
2018-11-03T14:33:50.046Z,9.43
2018-11-03T14:36:21.385Z,16.00
2018-11-03T14:38:53.371Z,11.93
2018-11-03T14:41:25.027Z,11.27
2018-11-03T14:43:56.454Z,10.90
2018-11-03T14:46:27.418Z,12.83
2018-11-03T14:48:58.820Z,10.87
2018-11-03T14:51:30.523Z,10.90
2018-11-03T14:54:01.849Z,10.47
2018-11-03T14:56:32.920Z,10.53
2018-11-03T14:59:05.299Z,9.83
2018-11-03T15:01:36.442Z,9.10
2018-11-03T15:04:08.474Z,12.83
2018-11-03T15:06:39.918Z,9.17
2018-11-03T15:09:11.294Z,9.77
2018-11-03T15:11:42.602Z,9.93
2018-11-03T15:14:13.863Z,11.13
2018-11-03T15:16:44.922Z,10.77
2018-11-03T15:19:16.276Z,9.83
2018-11-03T15:21:47.682Z,9.83
2018-11-03T15:24:18.922Z,11.80
2018-11-03T15:26:51.259Z,10.67
2018-11-03T15:29:23.209Z,10.00
2018-11-03T15:31:54.518Z,12.23
2018-11-03T15:34:25.935Z,10.83
2018-11-03T15:36:57.263Z,10.87
2018-11-03T15:39:30.034Z,12.30
2018-11-03T15:42:01.229Z,14.53
2018-11-03T15:44:32.489Z,11.60
2018-11-03T15:47:03.956Z,12.63
2018-11-03T15:49:35.614Z,11.50
2018-11-03T15:52:10.148Z,10.30
2018-11-03T15:54:41.892Z,10.47
2018-11-03T15:57:14.440Z,10.93
2018-11-03T15:59:45.428Z,11.60
2018-11-03T16:02:16.929Z,21.20
2018-11-03T16:04:48.554Z,13.17
2018-11-03T16:07:19.826Z,13.07
2018-11-03T16:09:52.022Z,12.77
2018-11-03T16:12:24.363Z,13.27
2018-11-03T16:14:55.552Z,11.20
2018-11-03T16:17:27.080Z,11.60
2018-11-03T16:19:59.029Z,11.73
2018-11-03T16:22:30.858Z,12.63
2018-11-03T16:25:02.754Z,11.83
2018-11-03T16:27:34.626Z,10.97
2018-11-03T16:30:06.571Z,13.70
2018-11-03T16:32:38.685Z,13.40
2018-11-03T16:35:11.230Z,12.87
2018-11-03T16:37:43.009Z,13.73
2018-11-03T16:40:15.978Z,11.83
2018-11-03T16:42:47.989Z,12.27
2018-11-03T16:45:21.070Z,13.90
2018-11-03T16:47:53.549Z,16.17
2018-11-03T16:50:25.722Z,14.50
2018-11-03T16:52:57.038Z,17.40
2018-11-03T16:55:28.558Z,14.30
2018-11-03T16:57:59.607Z,15.50
2018-11-03T17:00:31.371Z,14.83
2018-11-03T17:03:05.491Z,14.37
2018-11-03T17:05:36.738Z,14.97
2018-11-03T17:08:08.942Z,13.20
2018-11-03T17:10:40.409Z,14.47
2018-11-03T17:13:11.779Z,14.10
2018-11-03T17:15:44.661Z,13.70
2018-11-03T17:18:16.855Z,14.40
2018-11-03T17:20:48.673Z,14.40
2018-11-03T17:26:05.547Z,13.50
2018-11-03T17:28:41.399Z,13.30
2018-11-03T17:31:12.957Z,15.73
2018-11-03T17:33:45.453Z,14.70
2018-11-03T17:36:19.079Z,19.30
2018-11-03T17:38:54.710Z,20.90
2018-11-03T17:41:26.680Z,16.13
2018-11-03T17:43:58.478Z,15.77
2018-11-03T17:46:30.329Z,14.83
2018-11-03T17:49:03.248Z,16.63
2018-11-03T17:57:03.124Z,24.17
2018-11-03T17:59:35.231Z,23.30
2018-11-03T18:02:07.262Z,23.93
2018-11-03T18:04:39.699Z,22.80
2018-11-03T18:07:11.824Z,21.50
2018-11-03T18:09:44.808Z,23.33
2018-11-03T18:12:16.722Z,18.80
2018-11-03T18:14:48.587Z,18.90
2018-11-03T18:17:20.614Z,19.27
2018-11-03T18:19:52.286Z,19.50
2018-11-03T18:22:23.851Z,20.87
2018-11-03T18:24:56.322Z,20.50
2018-11-03T18:27:27.544Z,20.27
2018-11-03T18:29:58.781Z,19.40
2018-11-03T18:32:31.514Z,20.00
2018-11-03T18:35:04.027Z,21.90
2018-11-03T18:37:35.901Z,20.80
2018-11-03T18:40:09.071Z,19.67
2018-11-03T18:42:42.225Z,17.97
2018-11-03T18:45:14.908Z,16.53
2018-11-03T18:47:46.930Z,18.70
2018-11-03T18:50:19.330Z,21.57
2018-11-03T18:52:52.802Z,22.70
2018-11-03T18:55:26.356Z,23.07
2018-11-03T18:57:58.993Z,19.20
2018-11-03T19:00:31.150Z,21.27
2018-11-03T19:03:05.645Z,24.77
2018-11-03T19:05:39.465Z,19.47
2018-11-03T19:08:13.795Z,22.00
2018-11-03T19:10:47.666Z,19.70
2018-11-03T19:13:20.750Z,24.87
2018-11-03T19:15:53.585Z,28.13
2018-11-03T19:18:26.700Z,20.60
2018-11-03T19:21:07.210Z,24.80
2018-11-03T19:23:48.764Z,21.87
2018-11-03T19:26:24.846Z,19.63
2018-11-03T19:28:59.060Z,18.97
2018-11-03T19:31:33.761Z,20.50
2018-11-03T19:34:07.326Z,20.57
2018-11-03T19:36:40.677Z,18.60
2018-11-03T19:39:13.337Z,19.37
2018-11-03T19:41:45.964Z,21.57
2018-11-03T19:44:18.418Z,20.40
2018-11-03T19:46:51.920Z,19.37
2018-11-03T19:49:26.671Z,17.90
2018-11-03T19:51:59.210Z,17.83
2018-11-03T19:54:34.855Z,19.03
2018-11-03T19:57:08.872Z,19.30
2018-11-03T19:59:43.432Z,20.03
2018-11-03T20:02:20.324Z,19.37
2018-11-03T20:04:55.049Z,19.63
2018-11-03T20:07:28.173Z,19.37
2018-11-03T20:10:01.390Z,18.73
2018-11-03T20:12:37.421Z,19.30
2018-11-03T20:15:16.019Z,19.00
2018-11-03T20:17:50.508Z,18.20
2018-11-03T20:20:24.719Z,18.83
2018-11-03T20:22:59.652Z,18.30
2018-11-03T20:25:35.372Z,19.17
2018-11-03T20:28:09.991Z,20.53
2018-11-03T20:30:54.071Z,19.37
2018-11-03T20:33:27.619Z,19.53
2018-11-03T20:36:03.792Z,19.43
2018-11-03T20:38:37.736Z,19.50
2018-11-03T20:41:14.443Z,18.77
2018-11-03T20:43:54.394Z,17.93
2018-11-03T20:46:29.346Z,18.47
2018-11-03T20:49:03.902Z,18.77
2018-11-03T20:51:38.754Z,17.80
2018-11-03T20:54:11.771Z,20.37
2018-11-03T20:56:44.305Z,20.00
2018-11-03T20:59:16.494Z,18.87
2018-11-03T21:01:48.148Z,18.73
2018-11-03T21:04:21.987Z,19.23
2018-11-03T21:06:53.955Z,20.23
2018-11-03T21:09:26.622Z,20.17
2018-11-03T21:12:00.089Z,19.07
2018-11-03T21:14:32.956Z,18.70
2018-11-03T21:17:07.708Z,18.20
2018-11-03T21:19:41.134Z,19.53
2018-11-03T21:22:17.503Z,19.27
2018-11-03T21:24:51.021Z,21.40
2018-11-03T21:27:25.121Z,19.63
2018-11-03T21:29:58.294Z,19.40
2018-11-03T21:32:33.382Z,19.27
2018-11-03T21:35:06.499Z,19.00
2018-11-03T21:37:40.493Z,19.90
2018-11-03T21:40:14.506Z,21.10
2018-11-03T21:42:49.794Z,19.40
2018-11-03T21:45:23.777Z,19.07
2018-11-03T21:47:54.958Z,18.30
2018-11-03T21:50:38.066Z,18.17
2018-11-03T21:53:26.542Z,17.60
2018-11-03T21:56:10.943Z,18.67
2018-11-03T21:58:53.488Z,18.83
2018-11-03T22:01:36.873Z,20.97
2018-11-03T22:04:27.917Z,19.73
2018-11-03T22:07:21.440Z,17.90
2018-11-03T22:09:52.537Z,17.93
2018-11-03T22:12:39.352Z,18.90
2018-11-03T22:18:10.595Z,18.70
2018-11-03T22:20:49.212Z,17.87
2018-11-03T22:23:37.140Z,17.73
2018-11-03T22:26:13.340Z,19.97
2018-11-03T22:28:57.418Z,18.03
2018-11-03T22:31:29.468Z,19.50
2018-11-03T22:34:02.151Z,16.80
2018-11-03T22:36:35.075Z,18.10
2018-11-03T22:39:09.124Z,18.17
2018-11-03T22:41:40.872Z,18.60
2018-11-03T22:44:14.001Z,17.30
2018-11-03T22:46:45.551Z,19.43
2018-11-03T22:49:18.312Z,19.80
2018-11-03T22:52:03.279Z,18.07
2018-11-03T22:54:38.778Z,15.70
2018-11-03T22:59:59.702Z,18.17
2018-11-03T23:02:39.777Z,21.10
2018-11-03T23:05:26.673Z,22.43
2018-11-03T23:08:10.733Z,17.77
2018-11-03T23:10:58.746Z,24.60
2018-11-03T23:13:34.228Z,19.50
2018-11-03T23:16:19.016Z,19.20
2018-11-03T23:18:55.400Z,17.73
2018-11-03T23:21:40.306Z,18.83
2018-11-03T23:24:22.067Z,17.70
2018-11-03T23:27:00.709Z,16.00
2018-11-03T23:32:21.022Z,17.83
2018-11-03T23:34:53.484Z,17.33
2018-11-03T23:37:25.425Z,18.20
2018-11-03T23:39:57.193Z,18.97
2018-11-03T23:42:28.323Z,17.30
2018-11-03T23:45:00.910Z,20.53
2018-11-03T23:47:33.126Z,19.63
2018-11-03T23:50:16.223Z,18.20
2018-11-03T23:52:54.785Z,17.13
2018-11-03T23:55:35.028Z,17.80
2018-11-03T23:58:13.250Z,19.60
